sensor_id;sensor_type;location;lat;lon;timestamp;pressure;altitude;pressure_sealevel;temperature;humidity
21520;BME280;10921;53.614;9.882;2023-04-22T00:01:08;101114.28;;;11.88;52.35
21520;BME280;10921;53.614;9.882;2023-04-22T00:03:35;101109.91;;;11.87;52.56
21520;BME280;10921;53.614;9.882;2023-04-22T00:06:02;101093.44;;;11.82;52.44
21520;BME280;10921;53.614;9.882;2023-04-22T00:08:28;101089.94;;;11.81;52.40
21520;BME280;10921;53.614;9.882;2023-04-22T00:10:55;101073.47;;;11.67;52.26
21520;BME280;10921;53.614;9.882;2023-04-22T00:13:22;101091.19;;;11.77;52.54
21520;BME280;10921;53.614;9.882;2023-04-22T00:15:48;101096.25;;;11.80;51.96
21520;BME280;10921;53.614;9.882;2023-04-22T00:18:15;101036.06;;;11.47;52.43
21520;BME280;10921;53.614;9.882;2023-04-22T00:20:41;101086.00;;;11.76;52.78
21520;BME280;10921;53.614;9.882;2023-04-22T00:23:10;101075.84;;;11.70;52.25
21520;BME280;10921;53.614;9.882;2023-04-22T00:25:38;101079.94;;;11.74;52.43
21520;BME280;10921;53.614;9.882;2023-04-22T00:28:06;101065.88;;;11.72;52.70
21520;BME280;10921;53.614;9.882;2023-04-22T00:30:34;101063.88;;;11.64;52.68
21520;BME280;10921;53.614;9.882;2023-04-22T00:33:00;101015.28;;;11.41;53.15
21520;BME280;10921;53.614;9.882;2023-04-22T00:35:27;101066.28;;;11.67;52.80
21520;BME280;10921;53.614;9.882;2023-04-22T00:37:53;101071.78;;;11.66;52.74
21520;BME280;10921;53.614;9.882;2023-04-22T00:40:20;101028.19;;;11.46;52.83
21520;BME280;10921;53.614;9.882;2023-04-22T00:42:49;101062.50;;;11.60;52.99
21520;BME280;10921;53.614;9.882;2023-04-22T00:45:16;101059.13;;;11.58;53.08
21520;BME280;10921;53.614;9.882;2023-04-22T00:47:47;101047.75;;;11.56;52.64
21520;BME280;10921;53.614;9.882;2023-04-22T00:50:15;101037.34;;;11.43;53.10
21520;BME280;10921;53.614;9.882;2023-04-22T00:52:41;101004.03;;;11.28;53.17
21520;BME280;10921;53.614;9.882;2023-04-22T00:55:08;101014.59;;;11.30;53.09
21520;BME280;10921;53.614;9.882;2023-04-22T00:57:35;101034.81;;;11.42;53.16
21520;BME280;10921;53.614;9.882;2023-04-22T01:00:03;101014.72;;;11.28;53.11
21520;BME280;10921;53.614;9.882;2023-04-22T01:02:30;101042.84;;;11.42;53.88
21520;BME280;10921;53.614;9.882;2023-04-22T01:04:58;101033.53;;;11.36;53.55
21520;BME280;10921;53.614;9.882;2023-04-22T01:07:25;100996.59;;;11.12;53.25
21520;BME280;10921;53.614;9.882;2023-04-22T01:09:52;101039.88;;;11.35;53.59
21520;BME280;10921;53.614;9.882;2023-04-22T01:12:18;101034.81;;;11.32;53.98
21520;BME280;10921;53.614;9.882;2023-04-22T01:14:45;100989.28;;;11.05;53.85
21520;BME280;10921;53.614;9.882;2023-04-22T01:17:12;101028.78;;;11.30;53.63
21520;BME280;10921;53.614;9.882;2023-04-22T01:19:40;101020.34;;;11.25;54.01
21520;BME280;10921;53.614;9.882;2023-04-22T01:22:11;101015.00;;;11.25;54.05
21520;BME280;10921;53.614;9.882;2023-04-22T01:24:38;101025.69;;;11.25;53.94
21520;BME280;10921;53.614;9.882;2023-04-22T01:27:05;101035.53;;;11.24;54.68
21520;BME280;10921;53.614;9.882;2023-04-22T01:29:31;101015.28;;;11.22;54.67
21520;BME280;10921;53.614;9.882;2023-04-22T01:31:58;100910.75;;;10.59;54.33
21520;BME280;10921;53.614;9.882;2023-04-22T01:34:26;101010.66;;;11.14;54.15
21520;BME280;10921;53.614;9.882;2023-04-22T01:36:53;101011.66;;;11.13;54.68
21520;BME280;10921;53.614;9.882;2023-04-22T01:39:20;100980.56;;;10.93;54.01
21520;BME280;10921;53.614;9.882;2023-04-22T01:41:47;101005.72;;;11.10;54.80
21520;BME280;10921;53.614;9.882;2023-04-22T01:44:13;100995.19;;;10.99;54.73
21520;BME280;10921;53.614;9.882;2023-04-22T01:46:40;101004.31;;;11.06;54.59
21520;BME280;10921;53.614;9.882;2023-04-22T01:49:06;100992.09;;;11.03;54.74
21520;BME280;10921;53.614;9.882;2023-04-22T01:51:33;100968.94;;;10.84;55.11
21520;BME280;10921;53.614;9.882;2023-04-22T01:53:59;100945.16;;;10.72;55.28
21520;BME280;10921;53.614;9.882;2023-04-22T01:56:29;100972.00;;;10.89;55.14
21520;BME280;10921;53.614;9.882;2023-04-22T01:58:55;100975.66;;;10.88;55.47
21520;BME280;10921;53.614;9.882;2023-04-22T02:01:22;100984.78;;;10.96;55.38
21520;BME280;10921;53.614;9.882;2023-04-22T02:03:48;100972.97;;;10.88;55.50
21520;BME280;10921;53.614;9.882;2023-04-22T02:06:15;100983.25;;;10.93;55.35
21520;BME280;10921;53.614;9.882;2023-04-22T02:08:41;100907.66;;;10.44;55.89
21520;BME280;10921;53.614;9.882;2023-04-22T02:11:07;100961.06;;;10.83;55.23
21520;BME280;10921;53.614;9.882;2023-04-22T02:13:38;100962.56;;;10.85;55.75
21520;BME280;10921;53.614;9.882;2023-04-22T02:16:05;100941.63;;;10.71;55.37
21520;BME280;10921;53.614;9.882;2023-04-22T02:18:32;100961.44;;;10.88;55.30
21520;BME280;10921;53.614;9.882;2023-04-22T02:20:59;100948.81;;;10.71;55.55
21520;BME280;10921;53.614;9.882;2023-04-22T02:23:26;100949.50;;;10.73;56.29
21520;BME280;10921;53.614;9.882;2023-04-22T02:25:53;100931.94;;;10.61;56.00
21520;BME280;10921;53.614;9.882;2023-04-22T02:28:21;100913.28;;;10.51;56.07
21520;BME280;10921;53.614;9.882;2023-04-22T02:30:48;100968.75;;;10.76;56.54
21520;BME280;10921;53.614;9.882;2023-04-22T02:33:14;100958.50;;;10.72;56.89
21520;BME280;10921;53.614;9.882;2023-04-22T02:35:41;100945.47;;;10.69;56.87
21520;BME280;10921;53.614;9.882;2023-04-22T02:38:07;100940.50;;;10.54;56.58
21520;BME280;10921;53.614;9.882;2023-04-22T02:40:34;100937.88;;;10.64;56.90
21520;BME280;10921;53.614;9.882;2023-04-22T02:43:00;100934.75;;;10.59;56.91
21520;BME280;10921;53.614;9.882;2023-04-22T02:45:27;100921.41;;;10.49;56.96
21520;BME280;10921;53.614;9.882;2023-04-22T02:47:53;100881.50;;;10.29;57.27
21520;BME280;10921;53.614;9.882;2023-04-22T02:50:20;100929.28;;;10.51;57.22
21520;BME280;10921;53.614;9.882;2023-04-22T02:52:46;100892.44;;;10.26;57.36
21520;BME280;10921;53.614;9.882;2023-04-22T02:55:13;100902.44;;;10.33;57.49
21520;BME280;10921;53.614;9.882;2023-04-22T02:57:39;100939.53;;;10.55;57.15
21520;BME280;10921;53.614;9.882;2023-04-22T03:00:06;100896.13;;;10.34;57.52
21520;BME280;10921;53.614;9.882;2023-04-22T03:02:33;100933.91;;;10.58;57.54
21520;BME280;10921;53.614;9.882;2023-04-22T03:05:00;100906.41;;;10.39;57.49
21520;BME280;10921;53.614;9.882;2023-04-22T03:07:27;100929.16;;;10.62;57.80
21520;BME280;10921;53.614;9.882;2023-04-22T03:09:53;100923.53;;;10.65;57.40
21520;BME280;10921;53.614;9.882;2023-04-22T03:12:21;100913.00;;;10.64;57.86
21520;BME280;10921;53.614;9.882;2023-04-22T03:14:47;100901.06;;;10.58;57.87
21520;BME280;10921;53.614;9.882;2023-04-22T03:17:14;100875.66;;;10.54;57.37
21520;BME280;10921;53.614;9.882;2023-04-22T03:19:40;100903.72;;;10.77;57.44
21520;BME280;10921;53.614;9.882;2023-04-22T03:22:07;100900.91;;;10.79;57.52
21520;BME280;10921;53.614;9.882;2023-04-22T03:24:34;100898.13;;;10.80;57.02
21520;BME280;10921;53.614;9.882;2023-04-22T03:27:00;100893.63;;;10.81;57.32
21520;BME280;10921;53.614;9.882;2023-04-22T03:29:27;100874.91;;;10.71;57.39
21520;BME280;10921;53.614;9.882;2023-04-22T03:31:53;100872.13;;;10.73;57.14
21520;BME280;10921;53.614;9.882;2023-04-22T03:34:20;100909.34;;;10.84;57.45
21520;BME280;10921;53.614;9.882;2023-04-22T03:36:47;100895.44;;;10.80;57.37
21520;BME280;10921;53.614;9.882;2023-04-22T03:39:13;100906.38;;;10.87;57.23
21520;BME280;10921;53.614;9.882;2023-04-22T03:41:40;100902.03;;;10.86;57.03
21520;BME280;10921;53.614;9.882;2023-04-22T03:44:07;100899.22;;;10.87;57.02
21520;BME280;10921;53.614;9.882;2023-04-22T03:46:33;100895.56;;;10.88;57.74
21520;BME280;10921;53.614;9.882;2023-04-22T03:49:00;100888.41;;;10.89;57.72
21520;BME280;10921;53.614;9.882;2023-04-22T03:51:26;100860.59;;;10.72;57.64
21520;BME280;10921;53.614;9.882;2023-04-22T03:53:54;100851.50;;;10.65;57.64
21520;BME280;10921;53.614;9.882;2023-04-22T03:56:20;100824.25;;;10.52;57.52
21520;BME280;10921;53.614;9.882;2023-04-22T03:58:47;100852.91;;;10.69;57.46
21520;BME280;10921;53.614;9.882;2023-04-22T04:01:13;100845.16;;;10.66;57.42
21520;BME280;10921;53.614;9.882;2023-04-22T04:03:40;100885.16;;;10.85;57.96
21520;BME280;10921;53.614;9.882;2023-04-22T04:06:07;100872.25;;;10.81;57.78
21520;BME280;10921;53.614;9.882;2023-04-22T04:08:34;100870.28;;;10.83;58.22
21520;BME280;10921;53.614;9.882;2023-04-22T04:11:01;100866.94;;;10.81;58.15
21520;BME280;10921;53.614;9.882;2023-04-22T04:13:27;100827.63;;;10.54;58.17
21520;BME280;10921;53.614;9.882;2023-04-22T04:16:00;100839.13;;;10.64;58.45
21520;BME280;10921;53.614;9.882;2023-04-22T04:18:26;100870.00;;;10.76;58.29
21520;BME280;10921;53.614;9.882;2023-04-22T04:20:54;100847.69;;;10.68;58.45
21520;BME280;10921;53.614;9.882;2023-04-22T04:23:21;100856.56;;;10.68;59.02
21520;BME280;10921;53.614;9.882;2023-04-22T04:25:48;100861.56;;;10.71;58.84
21520;BME280;10921;53.614;9.882;2023-04-22T04:28:15;100852.91;;;10.69;59.21
21520;BME280;10921;53.614;9.882;2023-04-22T04:30:42;100862.41;;;10.72;59.38
21520;BME280;10921;53.614;9.882;2023-04-22T04:33:09;100855.25;;;10.72;59.21
21520;BME280;10921;53.614;9.882;2023-04-22T04:35:38;100842.38;;;10.68;59.48
21520;BME280;10921;53.614;9.882;2023-04-22T04:38:04;100842.34;;;10.77;58.78
21520;BME280;10921;53.614;9.882;2023-04-22T04:40:33;100843.88;;;10.80;59.18
21520;BME280;10921;53.614;9.882;2023-04-22T04:43:01;100848.25;;;10.81;59.37
21520;BME280;10921;53.614;9.882;2023-04-22T04:45:27;100848.34;;;10.89;59.01
21520;BME280;10921;53.614;9.882;2023-04-22T04:47:55;100836.69;;;10.90;58.77
21520;BME280;10921;53.614;9.882;2023-04-22T04:50:22;100842.31;;;10.97;59.10
21520;BME280;10921;53.614;9.882;2023-04-22T04:52:49;100833.19;;;10.99;58.81
21520;BME280;10921;53.614;9.882;2023-04-22T04:55:17;100841.00;;;11.10;58.98
21520;BME280;10921;53.614;9.882;2023-04-22T04:57:44;100835.53;;;11.12;59.00
21520;BME280;10921;53.614;9.882;2023-04-22T05:00:11;100801.66;;;11.03;58.54
21520;BME280;10921;53.614;9.882;2023-04-22T05:02:39;100825.94;;;11.19;58.30
21520;BME280;10921;53.614;9.882;2023-04-22T05:05:07;100840.78;;;11.31;58.50
21520;BME280;10921;53.614;9.882;2023-04-22T05:07:34;100809.75;;;11.20;58.15
21520;BME280;10921;53.614;9.882;2023-04-22T05:10:01;100831.84;;;11.50;58.31
21520;BME280;10921;53.614;9.882;2023-04-22T05:12:28;100838.44;;;11.55;58.03
21520;BME280;10921;53.614;9.882;2023-04-22T05:15:01;100830.50;;;11.63;57.87
21520;BME280;10921;53.614;9.882;2023-04-22T05:17:28;100816.63;;;11.60;57.23
21520;BME280;10921;53.614;9.882;2023-04-22T05:19:54;100845.25;;;11.77;57.50
21520;BME280;10921;53.614;9.882;2023-04-22T05:22:21;100787.41;;;11.49;57.55
21520;BME280;10921;53.614;9.882;2023-04-22T05:24:47;100843.75;;;11.92;56.56
21520;BME280;10921;53.614;9.882;2023-04-22T05:27:14;100817.09;;;11.83;56.38
21520;BME280;10921;53.614;9.882;2023-04-22T05:29:41;100833.47;;;12.15;56.11
21520;BME280;10921;53.614;9.882;2023-04-22T05:32:08;100821.50;;;12.19;56.27
21520;BME280;10921;53.614;9.882;2023-04-22T05:34:34;100816.28;;;12.36;56.58
21520;BME280;10921;53.614;9.882;2023-04-22T05:37:02;100791.66;;;12.32;55.58
21520;BME280;10921;53.614;9.882;2023-04-22T05:39:29;100811.91;;;12.52;55.46
21520;BME280;10921;53.614;9.882;2023-04-22T05:41:55;100733.28;;;12.10;55.19
21520;BME280;10921;53.614;9.882;2023-04-22T05:44:21;100774.75;;;12.49;55.31
21520;BME280;10921;53.614;9.882;2023-04-22T05:46:48;100780.44;;;12.72;55.03
21520;BME280;10921;53.614;9.882;2023-04-22T05:49:14;100775.50;;;12.85;54.64
21520;BME280;10921;53.614;9.882;2023-04-22T05:51:41;100809.91;;;13.24;53.28
21520;BME280;10921;53.614;9.882;2023-04-22T05:54:07;100807.78;;;13.35;53.49
21520;BME280;10921;53.614;9.882;2023-04-22T05:56:34;100816.06;;;13.50;53.28
21520;BME280;10921;53.614;9.882;2023-04-22T05:59:00;100817.44;;;13.62;52.92
21520;BME280;10921;53.614;9.882;2023-04-22T06:01:27;100780.38;;;13.50;53.28
21520;BME280;10921;53.614;9.882;2023-04-22T06:03:53;100797.56;;;13.73;52.82
21520;BME280;10921;53.614;9.882;2023-04-22T06:06:20;100812.50;;;13.84;52.27
21520;BME280;10921;53.614;9.882;2023-04-22T06:08:47;100809.00;;;13.91;53.03
21520;BME280;10921;53.614;9.882;2023-04-22T06:11:13;100816.06;;;14.00;52.58
21520;BME280;10921;53.614;9.882;2023-04-22T06:13:40;100813.06;;;14.12;52.04
21520;BME280;10921;53.614;9.882;2023-04-22T06:16:06;100806.22;;;14.17;51.99
21520;BME280;10921;53.614;9.882;2023-04-22T06:18:33;100806.03;;;14.27;51.35
21520;BME280;10921;53.614;9.882;2023-04-22T06:21:03;100806.72;;;14.37;50.89
21520;BME280;10921;53.614;9.882;2023-04-22T06:23:30;100813.66;;;14.48;50.87
21520;BME280;10921;53.614;9.882;2023-04-22T06:25:59;100778.06;;;14.46;50.46
21520;BME280;10921;53.614;9.882;2023-04-22T06:28:27;100795.69;;;14.81;50.78
21520;BME280;10921;53.614;9.882;2023-04-22T06:30:53;100801.69;;;14.83;50.01
21520;BME280;10921;53.614;9.882;2023-04-22T06:33:20;100764.47;;;14.63;49.70
21520;BME280;10921;53.614;9.882;2023-04-22T06:35:46;100776.03;;;14.80;49.82
21520;BME280;10921;53.614;9.882;2023-04-22T06:38:13;100808.72;;;15.08;49.45
21520;BME280;10921;53.614;9.882;2023-04-22T06:40:39;100814.22;;;15.14;49.07
21520;BME280;10921;53.614;9.882;2023-04-22T06:43:06;100810.34;;;15.25;49.20
21520;BME280;10921;53.614;9.882;2023-04-22T06:45:32;100780.28;;;15.22;49.08
21520;BME280;10921;53.614;9.882;2023-04-22T06:47:59;100807.78;;;15.40;49.49
21520;BME280;10921;53.614;9.882;2023-04-22T06:50:29;100727.09;;;15.01;48.21
21520;BME280;10921;53.614;9.882;2023-04-22T06:52:55;100762.75;;;15.34;48.70
21520;BME280;10921;53.614;9.882;2023-04-22T06:55:22;100796.25;;;15.70;48.57
21520;BME280;10921;53.614;9.882;2023-04-22T06:57:49;100802.16;;;15.97;47.79
21520;BME280;10921;53.614;9.882;2023-04-22T07:00:16;100801.81;;;16.23;47.32
21520;BME280;10921;53.614;9.882;2023-04-22T07:02:43;100795.88;;;16.50;46.90
21520;BME280;10921;53.614;9.882;2023-04-22T07:05:09;100790.19;;;16.68;46.67
21520;BME280;10921;53.614;9.882;2023-04-22T07:07:36;100807.00;;;16.93;46.35
21520;BME280;10921;53.614;9.882;2023-04-22T07:10:03;100805.81;;;17.10;45.58
21520;BME280;10921;53.614;9.882;2023-04-22T07:12:29;100797.91;;;17.23;46.24
21520;BME280;10921;53.614;9.882;2023-04-22T07:14:56;100789.06;;;17.29;45.16
21520;BME280;10921;53.614;9.882;2023-04-22T07:17:22;100793.25;;;17.32;45.39
21520;BME280;10921;53.614;9.882;2023-04-22T07:19:49;100799.94;;;17.36;45.45
21520;BME280;10921;53.614;9.882;2023-04-22T07:22:25;100761.91;;;17.16;45.18
21520;BME280;10921;53.614;9.882;2023-04-22T07:25:02;100809.72;;;17.37;44.67
21520;BME280;10921;53.614;9.882;2023-04-22T07:27:31;100778.66;;;17.26;45.29
21520;BME280;10921;53.614;9.882;2023-04-22T07:30:00;100772.22;;;17.27;45.37
21520;BME280;10921;53.614;9.882;2023-04-22T07:32:27;100789.03;;;17.44;45.21
21520;BME280;10921;53.614;9.882;2023-04-22T07:34:53;100796.88;;;17.53;45.46
21520;BME280;10921;53.614;9.882;2023-04-22T07:37:20;100797.31;;;17.57;45.17
21520;BME280;10921;53.614;9.882;2023-04-22T07:39:47;100774.25;;;17.54;45.28
21520;BME280;10921;53.614;9.882;2023-04-22T07:42:13;100782.78;;;17.73;45.32
21520;BME280;10921;53.614;9.882;2023-04-22T07:44:40;100781.84;;;17.80;45.05
21520;BME280;10921;53.614;9.882;2023-04-22T07:47:07;100768.56;;;17.79;44.66
21520;BME280;10921;53.614;9.882;2023-04-22T07:49:36;100752.16;;;17.80;45.58
21520;BME280;10921;53.614;9.882;2023-04-22T07:52:03;100777.47;;;18.15;45.36
21520;BME280;10921;53.614;9.882;2023-04-22T07:54:30;100776.81;;;18.35;43.97
21520;BME280;10921;53.614;9.882;2023-04-22T07:56:56;100771.75;;;18.46;43.70
21520;BME280;10921;53.614;9.882;2023-04-22T07:59:24;100777.78;;;18.48;44.43
21520;BME280;10921;53.614;9.882;2023-04-22T08:01:50;100777.44;;;18.58;43.65
21520;BME280;10921;53.614;9.882;2023-04-22T08:04:21;100773.34;;;18.62;43.98
21520;BME280;10921;53.614;9.882;2023-04-22T08:06:48;100755.81;;;18.58;43.84
21520;BME280;10921;53.614;9.882;2023-04-22T08:09:15;100754.25;;;18.64;43.67
21520;BME280;10921;53.614;9.882;2023-04-22T08:11:41;100768.06;;;18.75;44.10
21520;BME280;10921;53.614;9.882;2023-04-22T08:14:08;100765.34;;;18.75;43.83
21520;BME280;10921;53.614;9.882;2023-04-22T08:16:34;100753.94;;;18.80;44.04
21520;BME280;10921;53.614;9.882;2023-04-22T08:19:01;100725.75;;;18.61;43.18
21520;BME280;10921;53.614;9.882;2023-04-22T08:21:27;100751.66;;;18.83;44.11
21520;BME280;10921;53.614;9.882;2023-04-22T08:23:54;100756.94;;;18.91;44.58
21520;BME280;10921;53.614;9.882;2023-04-22T08:26:20;100754.03;;;18.93;44.15
21520;BME280;10921;53.614;9.882;2023-04-22T08:28:47;100762.03;;;19.08;44.69
21520;BME280;10921;53.614;9.882;2023-04-22T08:31:13;100716.59;;;18.96;44.17
21520;BME280;10921;53.614;9.882;2023-04-22T08:33:40;100721.28;;;19.16;43.63
21520;BME280;10921;53.614;9.882;2023-04-22T08:36:08;100755.16;;;19.46;43.35
21520;BME280;10921;53.614;9.882;2023-04-22T08:38:34;100749.38;;;19.56;43.94
21520;BME280;10921;53.614;9.882;2023-04-22T08:41:02;100733.97;;;19.50;42.82
21520;BME280;10921;53.614;9.882;2023-04-22T08:43:31;100714.34;;;19.48;43.12
21520;BME280;10921;53.614;9.882;2023-04-22T08:45:58;100740.50;;;19.75;43.15
21520;BME280;10921;53.614;9.882;2023-04-22T08:48:25;100735.94;;;19.76;43.80
21520;BME280;10921;53.614;9.882;2023-04-22T08:50:52;100734.09;;;19.89;43.57
21520;BME280;10921;53.614;9.882;2023-04-22T08:53:19;100731.41;;;19.96;43.58
21520;BME280;10921;53.614;9.882;2023-04-22T08:55:50;100740.81;;;20.13;43.83
21520;BME280;10921;53.614;9.882;2023-04-22T08:58:17;100717.03;;;20.09;42.42
21520;BME280;10921;53.614;9.882;2023-04-22T09:00:43;100739.56;;;20.35;42.50
21520;BME280;10921;53.614;9.882;2023-04-22T09:03:10;100750.03;;;20.52;42.93
21520;BME280;10921;53.614;9.882;2023-04-22T09:05:39;100737.94;;;20.54;41.95
21520;BME280;10921;53.614;9.882;2023-04-22T09:08:06;100703.53;;;20.55;41.19
21520;BME280;10921;53.614;9.882;2023-04-22T09:10:39;100726.84;;;20.89;41.38
21520;BME280;10921;53.614;9.882;2023-04-22T09:13:06;100701.19;;;20.85;41.34
21520;BME280;10921;53.614;9.882;2023-04-22T09:15:33;100752.84;;;21.29;42.22
21520;BME280;10921;53.614;9.882;2023-04-22T09:18:01;100704.25;;;21.21;40.54
21520;BME280;10921;53.614;9.882;2023-04-22T09:20:29;100718.13;;;21.51;40.37
21520;BME280;10921;53.614;9.882;2023-04-22T09:23:03;100736.84;;;22.04;40.16
21520;BME280;10921;53.614;9.882;2023-04-22T09:25:33;100743.09;;;22.36;39.62
21520;BME280;10921;53.614;9.882;2023-04-22T09:28:03;100743.81;;;22.74;39.33
21520;BME280;10921;53.614;9.882;2023-04-22T09:30:31;100701.69;;;22.84;39.51
21520;BME280;10921;53.614;9.882;2023-04-22T09:33:01;100706.94;;;23.22;38.61
21520;BME280;10921;53.614;9.882;2023-04-22T09:35:35;100727.69;;;23.71;37.16
21520;BME280;10921;53.614;9.882;2023-04-22T09:38:04;100692.41;;;23.76;37.97
21520;BME280;10921;53.614;9.882;2023-04-22T09:40:35;100727.41;;;24.32;36.36
21520;BME280;10921;53.614;9.882;2023-04-22T09:43:05;100732.44;;;24.59;36.44
21520;BME280;10921;53.614;9.882;2023-04-22T09:45:41;100724.72;;;25.14;37.22
21520;BME280;10921;53.614;9.882;2023-04-22T09:48:11;100728.28;;;25.14;35.75
21520;BME280;10921;53.614;9.882;2023-04-22T09:50:40;100723.97;;;25.30;34.28
21520;BME280;10921;53.614;9.882;2023-04-22T09:53:10;100715.63;;;25.48;34.03
21520;BME280;10921;53.614;9.882;2023-04-22T09:55:41;100679.59;;;25.51;33.31
21520;BME280;10921;53.614;9.882;2023-04-22T09:58:13;100682.88;;;25.77;33.89
21520;BME280;10921;53.614;9.882;2023-04-22T10:00:42;100687.22;;;26.06;33.31
21520;BME280;10921;53.614;9.882;2023-04-22T10:03:09;100708.88;;;26.24;33.01
21520;BME280;10921;53.614;9.882;2023-04-22T10:05:36;100697.13;;;26.41;32.66
21520;BME280;10921;53.614;9.882;2023-04-22T10:08:04;100715.25;;;26.47;31.84
21520;BME280;10921;53.614;9.882;2023-04-22T10:10:31;100654.75;;;26.26;31.58
21520;BME280;10921;53.614;9.882;2023-04-22T10:12:59;100700.16;;;26.61;32.11
21520;BME280;10921;53.614;9.882;2023-04-22T10:15:40;100674.22;;;26.47;31.93
21520;BME280;10921;53.614;9.882;2023-04-22T10:18:10;100673.88;;;26.60;32.56
21520;BME280;10921;53.614;9.882;2023-04-22T10:20:39;100673.59;;;26.78;32.15
21520;BME280;10921;53.614;9.882;2023-04-22T10:23:16;100669.41;;;26.92;31.74
21520;BME280;10921;53.614;9.882;2023-04-22T10:25:46;100659.72;;;26.85;32.07
21520;BME280;10921;53.614;9.882;2023-04-22T10:28:15;100634.31;;;26.68;30.94
21520;BME280;10921;53.614;9.882;2023-04-22T10:30:42;100675.31;;;27.01;31.83
21520;BME280;10921;53.614;9.882;2023-04-22T10:38:37;100663.97;;;27.14;31.03
21520;BME280;10921;53.614;9.882;2023-04-22T10:41:04;100639.69;;;27.23;30.98
21520;BME280;10921;53.614;9.882;2023-04-22T10:43:44;100611.84;;;27.31;32.02
21520;BME280;10921;53.614;9.882;2023-04-22T10:49:11;100616.63;;;27.67;31.00
21520;BME280;10921;53.614;9.882;2023-04-22T10:51:42;100646.78;;;27.94;30.74
21520;BME280;10921;53.614;9.882;2023-04-22T10:59:31;100638.78;;;28.20;28.79
21520;BME280;10921;53.614;9.882;2023-04-22T11:02:02;100630.88;;;28.28;28.83
21520;BME280;10921;53.614;9.882;2023-04-22T11:04:29;100627.47;;;28.16;28.84
21520;BME280;10921;53.614;9.882;2023-04-22T11:07:16;100616.41;;;28.38;29.63
21520;BME280;10921;53.614;9.882;2023-04-22T11:10:01;100621.91;;;28.38;30.04
21520;BME280;10921;53.614;9.882;2023-04-22T11:15:17;100623.34;;;28.51;29.94
21520;BME280;10921;53.614;9.882;2023-04-22T11:17:49;100588.94;;;28.33;29.24
21520;BME280;10921;53.614;9.882;2023-04-22T11:20:16;100605.25;;;28.55;28.99
21520;BME280;10921;53.614;9.882;2023-04-22T11:22:46;100606.34;;;28.59;28.84
21520;BME280;10921;53.614;9.882;2023-04-22T11:25:13;100603.44;;;28.70;29.27
21520;BME280;10921;53.614;9.882;2023-04-22T11:27:40;100605.88;;;28.67;29.68
21520;BME280;10921;53.614;9.882;2023-04-22T11:30:18;100607.91;;;28.82;29.46
21520;BME280;10921;53.614;9.882;2023-04-22T11:32:47;100596.66;;;28.88;29.11
21520;BME280;10921;53.614;9.882;2023-04-22T11:35:17;100594.78;;;29.04;29.33
21520;BME280;10921;53.614;9.882;2023-04-22T11:37:47;100599.16;;;28.95;28.71
21520;BME280;10921;53.614;9.882;2023-04-22T11:40:19;100560.69;;;28.85;28.84
21520;BME280;10921;53.614;9.882;2023-04-22T11:42:58;100531.78;;;28.72;29.26
21520;BME280;10921;53.614;9.882;2023-04-22T11:45:25;100581.34;;;29.02;28.94
21520;BME280;10921;53.614;9.882;2023-04-22T11:47:52;100572.00;;;28.98;28.73
21520;BME280;10921;53.614;9.882;2023-04-22T11:50:22;100573.66;;;29.10;28.70
21520;BME280;10921;53.614;9.882;2023-04-22T11:52:59;100555.78;;;29.02;29.16
21520;BME280;10921;53.614;9.882;2023-04-22T11:55:34;100562.44;;;29.16;28.80
21520;BME280;10921;53.614;9.882;2023-04-22T12:00:40;100566.28;;;29.30;28.91
21520;BME280;10921;53.614;9.882;2023-04-22T12:05:49;100559.19;;;29.55;28.09
21520;BME280;10921;53.614;9.882;2023-04-22T12:08:18;100546.84;;;29.57;27.98
21520;BME280;10921;53.614;9.882;2023-04-22T12:10:54;100507.25;;;29.58;28.31
21520;BME280;10921;53.614;9.882;2023-04-22T12:13:24;100551.53;;;30.02;28.91
21520;BME280;10921;53.614;9.882;2023-04-22T12:15:58;100543.81;;;29.94;28.05
21520;BME280;10921;53.614;9.882;2023-04-22T12:21:21;100548.75;;;29.87;27.79
21520;BME280;10921;53.614;9.882;2023-04-22T12:23:53;100541.63;;;29.61;27.85
21520;BME280;10921;53.614;9.882;2023-04-22T12:26:21;100543.78;;;29.38;28.70
21520;BME280;10921;53.614;9.882;2023-04-22T12:28:53;100528.59;;;29.11;28.62
21520;BME280;10921;53.614;9.882;2023-04-22T12:31:19;100534.91;;;28.96;28.95
21520;BME280;10921;53.614;9.882;2023-04-22T12:33:46;100529.03;;;28.72;29.96
21520;BME280;10921;53.614;9.882;2023-04-22T12:36:13;100539.13;;;28.56;29.57
21520;BME280;10921;53.614;9.882;2023-04-22T12:38:40;100487.81;;;28.15;30.27
21520;BME280;10921;53.614;9.882;2023-04-22T12:41:07;100524.06;;;28.17;31.18
21520;BME280;10921;53.614;9.882;2023-04-22T12:43:33;100505.84;;;28.00;30.34
21520;BME280;10921;53.614;9.882;2023-04-22T12:46:05;100522.56;;;27.99;31.27
21520;BME280;10921;53.614;9.882;2023-04-22T12:48:32;100516.72;;;28.22;31.25
21520;BME280;10921;53.614;9.882;2023-04-22T12:50:59;100503.56;;;27.87;30.42
21520;BME280;10921;53.614;9.882;2023-04-22T12:53:26;100510.09;;;27.81;31.21
21520;BME280;10921;53.614;9.882;2023-04-22T12:55:54;100503.72;;;27.71;31.61
21520;BME280;10921;53.614;9.882;2023-04-22T12:58:20;100450.78;;;27.33;31.56
21520;BME280;10921;53.614;9.882;2023-04-22T13:00:47;100487.13;;;27.55;31.89
21520;BME280;10921;53.614;9.882;2023-04-22T13:03:13;100495.34;;;27.55;31.90
21520;BME280;10921;53.614;9.882;2023-04-22T13:05:40;100473.53;;;27.34;31.93
21520;BME280;10921;53.614;9.882;2023-04-22T13:08:06;100435.56;;;27.15;31.56
21520;BME280;10921;53.614;9.882;2023-04-22T13:10:33;100483.09;;;27.31;31.33
21520;BME280;10921;53.614;9.882;2023-04-22T13:13:00;100451.78;;;27.22;31.18
21520;BME280;10921;53.614;9.882;2023-04-22T13:15:42;100436.91;;;26.86;32.18
21520;BME280;10921;53.614;9.882;2023-04-22T13:18:09;100465.03;;;27.03;31.51